sensor_id;sensor_type;location;lat;lon;timestamp;pressure;altitude;pressure_sealevel;temperature;humidity
68634;BME280;55625;47.072;22.192;2022-12-18T00:03:42;101043.59;;;-0.20;100.00
68634;BME280;55625;47.072;22.192;2022-12-18T00:06:08;101043.59;;;-0.20;100.00
68634;BME280;55625;47.072;22.192;2022-12-18T00:08:34;101047.19;;;-0.20;100.00
68634;BME280;55625;47.072;22.192;2022-12-18T00:11:10;101056.38;;;-0.19;100.00
68634;BME280;55625;47.072;22.192;2022-12-18T00:13:37;101065.22;;;-0.17;100.00
68634;BME280;55625;47.072;22.192;2022-12-18T00:16:09;101061.25;;;-0.16;100.00
68634;BME280;55625;47.072;22.192;2022-12-18T00:18:35;101062.88;;;-0.15;100.00
68634;BME280;55625;47.072;22.192;2022-12-18T00:21:04;101074.50;;;-0.13;100.00
68634;BME280;55625;47.072;22.192;2022-12-18T00:23:32;101080.53;;;-0.11;100.00
68634;BME280;55625;47.072;22.192;2022-12-18T00:26:00;101073.34;;;-0.12;100.00
68634;BME280;55625;47.072;22.192;2022-12-18T00:28:27;101082.88;;;-0.13;100.00
68634;BME280;55625;47.072;22.192;2022-12-18T00:33:29;101093.69;;;-0.24;100.00
68634;BME280;55625;47.072;22.192;2022-12-18T00:36:09;101091.81;;;-0.20;100.00
68634;BME280;55625;47.072;22.192;2022-12-18T00:38:35;101102.28;;;-0.17;100.00
68634;BME280;55625;47.072;22.192;2022-12-18T00:41:01;101100.31;;;-0.16;100.00
68634;BME280;55625;47.072;22.192;2022-12-18T00:43:27;101103.44;;;-0.18;100.00
68634;BME280;55625;47.072;22.192;2022-12-18T00:45:53;101105.88;;;-0.16;100.00
68634;BME280;55625;47.072;22.192;2022-12-18T00:48:19;101106.00;;;-0.13;100.00
68634;BME280;55625;47.072;22.192;2022-12-18T00:50:47;101108.44;;;-0.11;100.00
68634;BME280;55625;47.072;22.192;2022-12-18T00:53:13;101121.22;;;-0.10;100.00
68634;BME280;55625;47.072;22.192;2022-12-18T00:55:40;101120.06;;;-0.09;100.00
68634;BME280;55625;47.072;22.192;2022-12-18T00:58:07;101124.03;;;-0.10;100.00
68634;BME280;55625;47.072;22.192;2022-12-18T01:00:33;101130.75;;;-0.11;100.00
68634;BME280;55625;47.072;22.192;2022-12-18T01:02:59;101125.75;;;-0.18;100.00
68634;BME280;55625;47.072;22.192;2022-12-18T01:05:25;101130.19;;;-0.17;100.00
68634;BME280;55625;47.072;22.192;2022-12-18T01:07:51;101134.59;;;-0.16;100.00
68634;BME280;55625;47.072;22.192;2022-12-18T01:10:17;101141.47;;;-0.13;100.00
68634;BME280;55625;47.072;22.192;2022-12-18T01:12:43;101137.03;;;-0.14;100.00
68634;BME280;55625;47.072;22.192;2022-12-18T01:15:10;101135.41;;;-0.15;99.60
68634;BME280;55625;47.072;22.192;2022-12-18T01:17:37;101139.00;;;-0.15;99.57
68634;BME280;55625;47.072;22.192;2022-12-18T01:20:04;101145.75;;;-0.16;98.90
68634;BME280;55625;47.072;22.192;2022-12-18T01:22:31;101142.16;;;-0.16;100.00
68634;BME280;55625;47.072;22.192;2022-12-18T01:24:56;101146.56;;;-0.15;100.00
68634;BME280;55625;47.072;22.192;2022-12-18T01:27:22;101149.81;;;-0.13;100.00
68634;BME280;55625;47.072;22.192;2022-12-18T01:29:49;101146.56;;;-0.15;98.91
68634;BME280;55625;47.072;22.192;2022-12-18T01:32:15;101151.34;;;-0.16;99.21
68634;BME280;55625;47.072;22.192;2022-12-18T01:34:41;101146.22;;;-0.14;100.00
68634;BME280;55625;47.072;22.192;2022-12-18T01:37:07;101149.81;;;-0.13;100.00
68634;BME280;55625;47.072;22.192;2022-12-18T01:39:33;101152.63;;;-0.13;100.00
68634;BME280;55625;47.072;22.192;2022-12-18T01:42:00;101164.59;;;-0.13;100.00
68634;BME280;55625;47.072;22.192;2022-12-18T01:44:57;101157.84;;;-0.12;99.57
68634;BME280;55625;47.072;22.192;2022-12-18T01:49:56;101170.97;;;-0.12;98.89
68634;BME280;55625;47.072;22.192;2022-12-18T01:52:26;101183.78;;;-0.11;99.95
68634;BME280;55625;47.072;22.192;2022-12-18T01:54:54;101184.47;;;-0.14;97.84
68634;BME280;55625;47.072;22.192;2022-12-18T01:57:22;101189.59;;;-0.16;97.21
68634;BME280;55625;47.072;22.192;2022-12-18T01:59:52;101194.69;;;-0.18;98.19
68634;BME280;55625;47.072;22.192;2022-12-18T02:02:20;101193.53;;;-0.17;98.12
68634;BME280;55625;47.072;22.192;2022-12-18T02:04:46;101200.63;;;-0.20;98.86
68634;BME280;55625;47.072;22.192;2022-12-18T02:10:00;101199.44;;;-0.19;99.70
68634;BME280;55625;47.072;22.192;2022-12-18T02:12:53;101205.38;;;-0.20;98.93
68634;BME280;55625;47.072;22.192;2022-12-18T02:18:45;101198.53;;;-0.23;99.68
68634;BME280;55625;47.072;22.192;2022-12-18T02:21:47;101209.78;;;-0.19;99.83
68634;BME280;55625;47.072;22.192;2022-12-18T02:24:29;101218.50;;;-0.21;99.65
68634;BME280;55625;47.072;22.192;2022-12-18T02:27:04;101223.63;;;-0.23;100.00
68634;BME280;55625;47.072;22.192;2022-12-18T02:29:46;101228.38;;;-0.23;98.09
68634;BME280;55625;47.072;22.192;2022-12-18T02:32:30;101230.00;;;-0.22;98.79
68634;BME280;55625;47.072;22.192;2022-12-18T02:34:59;101227.22;;;-0.22;99.24
68634;BME280;55625;47.072;22.192;2022-12-18T02:37:28;101224.19;;;-0.29;96.46
68634;BME280;55625;47.072;22.192;2022-12-18T02:39:57;101231.75;;;-0.30;98.88
68634;BME280;55625;47.072;22.192;2022-12-18T02:42:24;101234.66;;;-0.26;99.51
68634;BME280;55625;47.072;22.192;2022-12-18T02:44:51;101241.06;;;-0.26;98.86
68634;BME280;55625;47.072;22.192;2022-12-18T02:47:24;101244.31;;;-0.24;99.56
68634;BME280;55625;47.072;22.192;2022-12-18T02:56:14;101251.03;;;-0.25;98.29
68634;BME280;55625;47.072;22.192;2022-12-18T02:58:56;101253.03;;;-0.25;98.97
68634;BME280;55625;47.072;22.192;2022-12-18T03:06:58;101256.84;;;-0.30;98.36
68634;BME280;55625;47.072;22.192;2022-12-18T03:09:38;101263.56;;;-0.31;98.30
68634;BME280;55625;47.072;22.192;2022-12-18T03:15:31;101262.94;;;-0.37;98.48
68634;BME280;55625;47.072;22.192;2022-12-18T03:18:06;101264.78;;;-0.41;98.13
68634;BME280;55625;47.072;22.192;2022-12-18T03:20:35;101270.59;;;-0.46;98.42
68634;BME280;55625;47.072;22.192;2022-12-18T03:23:09;101274.41;;;-0.50;97.98
68634;BME280;55625;47.072;22.192;2022-12-18T03:25:40;101278.56;;;-0.56;98.50
68634;BME280;55625;47.072;22.192;2022-12-18T03:28:14;101277.91;;;-0.62;99.08
68634;BME280;55625;47.072;22.192;2022-12-18T03:30:44;101280.09;;;-0.68;99.03
68634;BME280;55625;47.072;22.192;2022-12-18T03:33:21;101286.69;;;-0.72;99.27
68634;BME280;55625;47.072;22.192;2022-12-18T03:35:50;101301.31;;;-0.75;99.98
68634;BME280;55625;47.072;22.192;2022-12-18T03:38:16;101298.72;;;-0.80;100.00
68634;BME280;55625;47.072;22.192;2022-12-18T03:41:10;101310.88;;;-0.85;99.15
68634;BME280;55625;47.072;22.192;2022-12-18T03:44:15;101310.09;;;-0.94;98.54
68634;BME280;55625;47.072;22.192;2022-12-18T03:47:15;101311.31;;;-1.04;97.43
68634;BME280;55625;47.072;22.192;2022-12-18T03:53:50;101322.50;;;-1.12;98.03
68634;BME280;55625;47.072;22.192;2022-12-18T03:56:18;101328.41;;;-1.14;98.86
68634;BME280;55625;47.072;22.192;2022-12-18T03:58:48;101327.13;;;-1.16;98.78
68634;BME280;55625;47.072;22.192;2022-12-18T04:01:16;101330.91;;;-1.21;98.69
68634;BME280;55625;47.072;22.192;2022-12-18T04:03:46;101328.78;;;-1.24;98.00
68634;BME280;55625;47.072;22.192;2022-12-18T04:06:14;101338.13;;;-1.29;97.38
68634;BME280;55625;47.072;22.192;2022-12-18T04:08:41;101341.75;;;-1.28;98.83
68634;BME280;55625;47.072;22.192;2022-12-18T04:11:07;101348.78;;;-1.31;98.97
68634;BME280;55625;47.072;22.192;2022-12-18T04:13:38;101353.06;;;-1.33;99.09
68634;BME280;55625;47.072;22.192;2022-12-18T04:16:04;101353.25;;;-1.38;99.49
68634;BME280;55625;47.072;22.192;2022-12-18T04:18:30;101362.28;;;-1.41;99.43
68634;BME280;55625;47.072;22.192;2022-12-18T04:20:56;101356.56;;;-1.45;100.00
68634;BME280;55625;47.072;22.192;2022-12-18T04:23:22;101368.69;;;-1.49;100.00
68634;BME280;55625;47.072;22.192;2022-12-18T04:25:48;101368.03;;;-1.55;100.00
68634;BME280;55625;47.072;22.192;2022-12-18T04:28:14;101375.41;;;-1.59;100.00
68634;BME280;55625;47.072;22.192;2022-12-18T04:30:40;101366.09;;;-1.63;100.00
68634;BME280;55625;47.072;22.192;2022-12-18T04:33:13;101378.69;;;-1.66;100.00
68634;BME280;55625;47.072;22.192;2022-12-18T04:35:40;101392.63;;;-1.66;100.00
68634;BME280;55625;47.072;22.192;2022-12-18T04:38:09;101389.19;;;-1.71;100.00
68634;BME280;55625;47.072;22.192;2022-12-18T04:40:38;101400.66;;;-1.73;100.00
68634;BME280;55625;47.072;22.192;2022-12-18T04:43:04;101395.28;;;-1.78;100.00
68634;BME280;55625;47.072;22.192;2022-12-18T04:45:31;101391.19;;;-1.80;100.00
68634;BME280;55625;47.072;22.192;2022-12-18T04:47:58;101399.53;;;-1.80;100.00
68634;BME280;55625;47.072;22.192;2022-12-18T04:50:24;101400.81;;;-1.87;100.00
68634;BME280;55625;47.072;22.192;2022-12-18T04:52:50;101405.56;;;-1.87;100.00
68634;BME280;55625;47.072;22.192;2022-12-18T04:55:16;101404.75;;;-1.88;100.00
68634;BME280;55625;47.072;22.192;2022-12-18T04:57:42;101408.84;;;-1.94;100.00
68634;BME280;55625;47.072;22.192;2022-12-18T05:00:09;101412.63;;;-1.98;100.00
68634;BME280;55625;47.072;22.192;2022-12-18T05:02:35;101425.72;;;-1.99;100.00
68634;BME280;55625;47.072;22.192;2022-12-18T05:05:00;101428.00;;;-2.01;100.00
68634;BME280;55625;47.072;22.192;2022-12-18T05:07:26;101429.31;;;-2.07;100.00
68634;BME280;55625;47.072;22.192;2022-12-18T05:09:52;101433.56;;;-2.09;100.00
68634;BME280;55625;47.072;22.192;2022-12-18T05:12:18;101440.59;;;-2.12;100.00
68634;BME280;55625;47.072;22.192;2022-12-18T05:14:44;101448.75;;;-2.15;100.00
68634;BME280;55625;47.072;22.192;2022-12-18T05:17:09;101458.88;;;-2.20;100.00
68634;BME280;55625;47.072;22.192;2022-12-18T05:19:38;101448.25;;;-2.17;100.00
68634;BME280;55625;47.072;22.192;2022-12-18T05:22:04;101459.06;;;-2.16;100.00
68634;BME280;55625;47.072;22.192;2022-12-18T05:24:30;101461.50;;;-2.14;100.00
68634;BME280;55625;47.072;22.192;2022-12-18T05:26:56;101456.78;;;-2.14;100.00
68634;BME280;55625;47.072;22.192;2022-12-18T05:29:22;101461.03;;;-2.16;100.00
68634;BME280;55625;47.072;22.192;2022-12-18T05:31:48;101465.75;;;-2.17;100.00
68634;BME280;55625;47.072;22.192;2022-12-18T05:34:14;101466.91;;;-2.18;100.00
68634;BME280;55625;47.072;22.192;2022-12-18T05:36:40;101460.84;;;-2.20;100.00
68634;BME280;55625;47.072;22.192;2022-12-18T05:39:05;101470.66;;;-2.23;100.00
68634;BME280;55625;47.072;22.192;2022-12-18T05:41:32;101485.22;;;-2.26;100.00
68634;BME280;55625;47.072;22.192;2022-12-18T05:43:58;101480.81;;;-2.27;100.00
68634;BME280;55625;47.072;22.192;2022-12-18T05:46:24;101482.44;;;-2.26;100.00
68634;BME280;55625;47.072;22.192;2022-12-18T05:48:51;101491.91;;;-2.27;100.00
68634;BME280;55625;47.072;22.192;2022-12-18T05:51:20;101496.16;;;-2.29;100.00
68634;BME280;55625;47.072;22.192;2022-12-18T05:53:47;101504.03;;;-2.31;100.00
68634;BME280;55625;47.072;22.192;2022-12-18T05:56:18;101500.06;;;-2.39;100.00
68634;BME280;55625;47.072;22.192;2022-12-18T05:58:44;101508.75;;;-2.40;100.00
68634;BME280;55625;47.072;22.192;2022-12-18T06:01:17;101511.34;;;-2.44;100.00
68634;BME280;55625;47.072;22.192;2022-12-18T06:03:43;101513.44;;;-2.50;100.00
68634;BME280;55625;47.072;22.192;2022-12-18T06:06:19;101514.91;;;-2.52;100.00
68634;BME280;55625;47.072;22.192;2022-12-18T06:08:46;101518.00;;;-2.54;100.00
68634;BME280;55625;47.072;22.192;2022-12-18T06:11:12;101523.38;;;-2.57;100.00
68634;BME280;55625;47.072;22.192;2022-12-18T06:13:39;101528.13;;;-2.58;100.00
68634;BME280;55625;47.072;22.192;2022-12-18T06:16:05;101534.00;;;-2.59;100.00
68634;BME280;55625;47.072;22.192;2022-12-18T06:18:31;101544.28;;;-2.60;100.00
68634;BME280;55625;47.072;22.192;2022-12-18T06:20:59;101548.53;;;-2.62;100.00
68634;BME280;55625;47.072;22.192;2022-12-18T06:23:25;101553.28;;;-2.63;100.00
68634;BME280;55625;47.072;22.192;2022-12-18T06:25:52;101555.72;;;-2.61;100.00
68634;BME280;55625;47.072;22.192;2022-12-18T06:28:18;101557.38;;;-2.60;100.00
68634;BME280;55625;47.072;22.192;2022-12-18T06:30:47;101562.94;;;-2.60;100.00
68634;BME280;55625;47.072;22.192;2022-12-18T06:33:15;101557.38;;;-2.60;100.00
68634;BME280;55625;47.072;22.192;2022-12-18T06:35:41;101570.75;;;-2.62;100.00
68634;BME280;55625;47.072;22.192;2022-12-18T06:38:07;101571.59;;;-2.62;100.00
68634;BME280;55625;47.072;22.192;2022-12-18T06:40:34;101576.00;;;-2.61;100.00
68634;BME280;55625;47.072;22.192;2022-12-18T06:42:59;101578.78;;;-2.61;100.00
68634;BME280;55625;47.072;22.192;2022-12-18T06:45:25;101585.47;;;-2.62;100.00
68634;BME280;55625;47.072;22.192;2022-12-18T06:47:51;101591.22;;;-2.58;100.00
68634;BME280;55625;47.072;22.192;2022-12-18T06:50:17;101593.69;;;-2.57;100.00
68634;BME280;55625;47.072;22.192;2022-12-18T06:52:43;101591.41;;;-2.55;100.00
68634;BME280;55625;47.072;22.192;2022-12-18T06:55:10;101593.84;;;-2.53;100.00
68634;BME280;55625;47.072;22.192;2022-12-18T06:57:37;101600.41;;;-2.49;100.00
68634;BME280;55625;47.072;22.192;2022-12-18T07:00:06;101601.41;;;-2.45;100.00
68634;BME280;55625;47.072;22.192;2022-12-18T07:02:32;101609.63;;;-2.40;100.00
68634;BME280;55625;47.072;22.192;2022-12-18T07:04:58;101610.63;;;-2.36;100.00
68634;BME280;55625;47.072;22.192;2022-12-18T07:07:24;101613.09;;;-2.34;100.00
68634;BME280;55625;47.072;22.192;2022-12-18T07:09:51;101619.66;;;-2.30;100.00
68634;BME280;55625;47.072;22.192;2022-12-18T07:12:17;101625.88;;;-2.25;100.00
68634;BME280;55625;47.072;22.192;2022-12-18T07:14:43;101622.63;;;-2.18;100.00
68634;BME280;55625;47.072;22.192;2022-12-18T07:17:09;101621.16;;;-2.15;100.00
68634;BME280;55625;47.072;22.192;2022-12-18T07:19:35;101623.66;;;-2.14;100.00
68634;BME280;55625;47.072;22.192;2022-12-18T07:22:01;101616.63;;;-2.11;100.00
68634;BME280;55625;47.072;22.192;2022-12-18T07:24:27;101633.97;;;-2.06;100.00
68634;BME280;55625;47.072;22.192;2022-12-18T07:26:53;101630.56;;;-2.03;100.00
68634;BME280;55625;47.072;22.192;2022-12-18T07:29:19;101642.34;;;-1.97;100.00
68634;BME280;55625;47.072;22.192;2022-12-18T07:31:45;101639.75;;;-1.94;100.00
68634;BME280;55625;47.072;22.192;2022-12-18T07:34:12;101645.31;;;-1.94;100.00
68634;BME280;55625;47.072;22.192;2022-12-18T07:36:38;101641.56;;;-1.89;100.00
68634;BME280;55625;47.072;22.192;2022-12-18T07:39:04;101646.47;;;-1.86;100.00
68634;BME280;55625;47.072;22.192;2022-12-18T07:41:30;101655.84;;;-1.82;100.00
68634;BME280;55625;47.072;22.192;2022-12-18T07:43:56;101661.91;;;-1.80;100.00
68634;BME280;55625;47.072;22.192;2022-12-18T07:46:22;101661.56;;;-1.78;100.00
68634;BME280;55625;47.072;22.192;2022-12-18T07:48:48;101669.59;;;-1.77;100.00
68634;BME280;55625;47.072;22.192;2022-12-18T07:51:14;101670.09;;;-1.75;100.00
68634;BME280;55625;47.072;22.192;2022-12-18T07:53:40;101674.19;;;-1.72;100.00
68634;BME280;55625;47.072;22.192;2022-12-18T07:56:10;101681.91;;;-1.69;100.00
68634;BME280;55625;47.072;22.192;2022-12-18T07:58:36;101681.25;;;-1.66;100.00
68634;BME280;55625;47.072;22.192;2022-12-18T08:03:29;101692.06;;;-1.65;100.00
68634;BME280;55625;47.072;22.192;2022-12-18T08:06:06;101692.22;;;-1.70;100.00
68634;BME280;55625;47.072;22.192;2022-12-18T08:08:33;101696.81;;;-1.65;100.00
68634;BME280;55625;47.072;22.192;2022-12-18T08:10:59;101695.50;;;-1.59;100.00
68634;BME280;55625;47.072;22.192;2022-12-18T08:13:26;101699.91;;;-1.67;100.00
68634;BME280;55625;47.072;22.192;2022-12-18T08:16:00;101696.16;;;-1.62;100.00
68634;BME280;55625;47.072;22.192;2022-12-18T08:18:26;101704.66;;;-1.67;99.37
68634;BME280;55625;47.072;22.192;2022-12-18T08:20:52;101709.09;;;-1.66;99.48
68634;BME280;55625;47.072;22.192;2022-12-18T08:23:18;101707.94;;;-1.65;98.83
68634;BME280;55625;47.072;22.192;2022-12-18T08:25:44;101708.44;;;-1.54;99.51
68634;BME280;55625;47.072;22.192;2022-12-18T08:28:10;101715.03;;;-1.50;99.38
68634;BME280;55625;47.072;22.192;2022-12-18T08:30:36;101714.38;;;-1.47;99.81
68634;BME280;55625;47.072;22.192;2022-12-18T08:33:03;101719.16;;;-1.39;100.00
68634;BME280;55625;47.072;22.192;2022-12-18T08:35:29;101716.06;;;-1.29;98.24
68634;BME280;55625;47.072;22.192;2022-12-18T08:37:55;101714.13;;;-1.20;97.79
68634;BME280;55625;47.072;22.192;2022-12-18T08:40:21;101718.22;;;-1.09;94.31
68634;BME280;55625;47.072;22.192;2022-12-18T08:42:46;101723.47;;;-1.16;95.27
68634;BME280;55625;47.072;22.192;2022-12-18T08:45:31;101718.56;;;-1.10;95.25
68634;BME280;55625;47.072;22.192;2022-12-18T08:47:57;101720.69;;;-0.99;95.02
68634;BME280;55625;47.072;22.192;2022-12-18T08:50:22;101718.06;;;-0.95;93.76
68634;BME280;55625;47.072;22.192;2022-12-18T08:52:48;101722.31;;;-0.98;93.45
68634;BME280;55625;47.072;22.192;2022-12-18T08:55:14;101722.16;;;-0.93;93.73
68634;BME280;55625;47.072;22.192;2022-12-18T08:57:40;101729.72;;;-0.84;92.32
68634;BME280;55625;47.072;22.192;2022-12-18T09:00:06;101731.53;;;-0.71;91.63
68634;BME280;55625;47.072;22.192;2022-12-18T09:02:33;101733.16;;;-0.53;89.67
68634;BME280;55625;47.072;22.192;2022-12-18T09:04:59;101731.50;;;-0.37;90.03
68634;BME280;55625;47.072;22.192;2022-12-18T09:07:24;101729.69;;;-0.24;90.03
68634;BME280;55625;47.072;22.192;2022-12-18T09:09:50;101744.28;;;-0.36;89.87
68634;BME280;55625;47.072;22.192;2022-12-18T09:12:16;101743.97;;;-0.25;89.65
68634;BME280;55625;47.072;22.192;2022-12-18T09:14:42;101748.72;;;-0.17;88.05
68634;BME280;55625;47.072;22.192;2022-12-18T09:17:08;101754.09;;;0.05;88.37
68634;BME280;55625;47.072;22.192;2022-12-18T09:19:34;101753.88;;;0.19;88.72
68634;BME280;55625;47.072;22.192;2022-12-18T09:22:00;101760.91;;;0.34;87.79
68634;BME280;55625;47.072;22.192;2022-12-18T09:24:26;101761.19;;;0.41;86.67
68634;BME280;55625;47.072;22.192;2022-12-18T09:26:55;101758.19;;;0.46;87.44
68634;BME280;55625;47.072;22.192;2022-12-18T09:29:21;101768.13;;;0.35;84.53
68634;BME280;55625;47.072;22.192;2022-12-18T09:31:47;101758.88;;;0.43;86.69
68634;BME280;55625;47.072;22.192;2022-12-18T09:34:13;101757.97;;;0.59;85.75
68634;BME280;55625;47.072;22.192;2022-12-18T09:36:39;101747.94;;;0.88;85.44
68634;BME280;55625;47.072;22.192;2022-12-18T09:39:05;101759.56;;;0.99;85.25
68634;BME280;55625;47.072;22.192;2022-12-18T09:44:38;101749.56;;;0.68;84.07
68634;BME280;55625;47.072;22.192;2022-12-18T09:49:39;101757.47;;;0.66;82.67
68634;BME280;55625;47.072;22.192;2022-12-18T09:52:40;101757.06;;;0.76;80.52
68634;BME280;55625;47.072;22.192;2022-12-18T09:57:53;101756.19;;;0.84;83.10
68634;BME280;55625;47.072;22.192;2022-12-18T10:00:23;101753.16;;;1.19;81.28
68634;BME280;55625;47.072;22.192;2022-12-18T10:02:53;101755.22;;;1.51;80.54
68634;BME280;55625;47.072;22.192;2022-12-18T10:10:57;101761.63;;;1.73;78.25
68634;BME280;55625;47.072;22.192;2022-12-18T10:13:39;101753.28;;;1.85;78.12
68634;BME280;55625;47.072;22.192;2022-12-18T10:16:17;101752.63;;;2.12;79.46
68634;BME280;55625;47.072;22.192;2022-12-18T10:21:39;101755.72;;;2.32;77.73
68634;BME280;55625;47.072;22.192;2022-12-18T10:24:33;101758.88;;;2.30;76.84
68634;BME280;55625;47.072;22.192;2022-12-18T10:27:16;101750.34;;;2.39;76.65
68634;BME280;55625;47.072;22.192;2022-12-18T10:29:46;101751.91;;;2.03;76.83
68634;BME280;55625;47.072;22.192;2022-12-18T10:32:26;101753.09;;;2.02;75.49
68634;BME280;55625;47.072;22.192;2022-12-18T10:34:56;101753.88;;;1.58;75.42
68634;BME280;55625;47.072;22.192;2022-12-18T10:37:28;101750.16;;;1.45;75.67
68634;BME280;55625;47.072;22.192;2022-12-18T10:40:15;101746.63;;;1.57;76.81
68634;BME280;55625;47.072;22.192;2022-12-18T10:42:41;101741.78;;;1.66;76.35
68634;BME280;55625;47.072;22.192;2022-12-18T10:45:16;101744.91;;;1.97;73.45
68634;BME280;55625;47.072;22.192;2022-12-18T10:47:47;101738.44;;;2.17;73.07
68634;BME280;55625;47.072;22.192;2022-12-18T10:50:36;101741.47;;;2.37;74.02
68634;BME280;55625;47.072;22.192;2022-12-18T10:53:04;101737.16;;;2.39;72.57
68634;BME280;55625;47.072;22.192;2022-12-18T10:55:34;101741.88;;;2.47;74.88
68634;BME280;55625;47.072;22.192;2022-12-18T10:58:37;101732.84;;;2.30;75.43
68634;BME280;55625;47.072;22.192;2022-12-18T11:01:16;101739.72;;;2.32;72.54
68634;BME280;55625;47.072;22.192;2022-12-18T11:03:59;101734.91;;;2.08;73.88
68634;BME280;55625;47.072;22.192;2022-12-18T11:06:26;101741.94;;;2.39;73.37
68634;BME280;55625;47.072;22.192;2022-12-18T11:09:05;101745.00;;;2.58;74.01
68634;BME280;55625;47.072;22.192;2022-12-18T11:11:52;101738.69;;;2.37;73.75
68634;BME280;55625;47.072;22.192;2022-12-18T11:16:57;101738.34;;;2.63;74.50
68634;BME280;55625;47.072;22.192;2022-12-18T11:22:02;101741.06;;;2.47;74.40
68634;BME280;55625;47.072;22.192;2022-12-18T11:24:36;101736.44;;;2.18;74.48
68634;BME280;55625;47.072;22.192;2022-12-18T11:27:06;101741.59;;;1.83;77.57
68634;BME280;55625;47.072;22.192;2022-12-18T11:29:41;101745.72;;;1.65;78.76
68634;BME280;55625;47.072;22.192;2022-12-18T11:37:33;101740.97;;;2.10;79.00
68634;BME280;55625;47.072;22.192;2022-12-18T11:40:09;101752.56;;;2.21;78.06
68634;BME280;55625;47.072;22.192;2022-12-18T11:43:10;101744.75;;;2.39;76.68
68634;BME280;55625;47.072;22.192;2022-12-18T11:45:59;101745.69;;;2.31;76.29
68634;BME280;55625;47.072;22.192;2022-12-18T11:48:32;101746.63;;;2.23;76.43
68634;BME280;55625;47.072;22.192;2022-12-18T11:51:02;101735.41;;;2.35;76.85
68634;BME280;55625;47.072;22.192;2022-12-18T11:53:30;101748.03;;;2.41;76.04
68634;BME280;55625;47.072;22.192;2022-12-18T11:56:32;101758.53;;;2.44;76.31
68634;BME280;55625;47.072;22.192;2022-12-18T12:01:50;101760.03;;;2.29;74.98
68634;BME280;55625;47.072;22.192;2022-12-18T12:04:48;101758.75;;;2.27;75.72
68634;BME280;55625;47.072;22.192;2022-12-18T12:13:30;101761.38;;;2.11;77.37
68634;BME280;55625;47.072;22.192;2022-12-18T12:21:55;101756.34;;;2.04;76.60
68634;BME280;55625;47.072;22.192;2022-12-18T12:25:01;101754.28;;;1.80;73.62
68634;BME280;55625;47.072;22.192;2022-12-18T12:40:56;101753.31;;;1.43;79.22
68634;BME280;55625;47.072;22.192;2022-12-18T12:43:48;101756.22;;;1.68;78.90
68634;BME280;55625;47.072;22.192;2022-12-18T12:46:17;101755.06;;;1.69;76.73
68634;BME280;55625;47.072;22.192;2022-12-18T12:48:56;101756.22;;;1.68;77.15
68634;BME280;55625;47.072;22.192;2022-12-18T12:51:29;101756.59;;;1.45;78.27
68634;BME280;55625;47.072;22.192;2022-12-18T12:53:57;101756.53;;;1.33;77.91
68634;BME280;55625;47.072;22.192;2022-12-18T12:57:11;101752.22;;;1.15;79.35
68634;BME280;55625;47.072;22.192;2022-12-18T13:00:13;101749.22;;;1.20;78.47
68634;BME280;55625;47.072;22.192;2022-12-18T13:08:12;101758.06;;;1.01;77.45
68634;BME280;55625;47.072;22.192;2022-12-18T13:10:47;101774.09;;;0.63;77.50
68634;BME280;55625;47.072;22.192;2022-12-18T13:13:15;101760.28;;;0.57;78.36
68634;BME280;55625;47.072;22.192;2022-12-18T13:16:04;101756.66;;;0.66;79.01
68634;BME280;55625;47.072;22.192;2022-12-18T13:18:30;101760.47;;;0.52;79.33
68634;BME280;55625;47.072;22.192;2022-12-18T13:36:46;101787.22;;;0.62;80.59
68634;BME280;55625;47.072;22.192;2022-12-18T13:41:47;101793.31;;;0.64;80.85
68634;BME280;55625;47.072;22.192;2022-12-18T13:44:39;101803.00;;;0.58;80.77
68634;BME280;55625;47.072;22.192;2022-12-18T13:47:33;101808.19;;;0.39;81.39
68634;BME280;55625;47.072;22.192;2022-12-18T13:50:20;101812.66;;;0.31;82.14
68634;BME280;55625;47.072;22.192;2022-12-18T13:52:47;101819.38;;;0.21;81.74
68634;BME280;55625;47.072;22.192;2022-12-18T13:55:18;101820.19;;;0.22;83.37
68634;BME280;55625;47.072;22.192;2022-12-18T13:57:45;101828.25;;;0.23;83.61
68634;BME280;55625;47.072;22.192;2022-12-18T14:00:31;101833.34;;;0.21;83.57
68634;BME280;55625;47.072;22.192;2022-12-18T14:02:59;101835.66;;;0.19;84.06
68634;BME280;55625;47.072;22.192;2022-12-18T14:05:35;101840.59;;;0.14;84.16
68634;BME280;55625;47.072;22.192;2022-12-18T14:08:05;101838.78;;;0.09;83.75
68634;BME280;55625;47.072;22.192;2022-12-18T14:10:33;101851.44;;;0.07;84.13
68634;BME280;55625;47.072;22.192;2022-12-18T14:13:06;101849.66;;;0.02;83.78
68634;BME280;55625;47.072;22.192;2022-12-18T14:15:42;101860.31;;;0.00;83.50
68634;BME280;55625;47.072;22.192;2022-12-18T14:18:32;101860.94;;;-0.03;83.66
68634;BME280;55625;47.072;22.192;2022-12-18T14:21:01;101861.13;;;-0.08;85.24
68634;BME280;55625;47.072;22.192;2022-12-18T14:23:41;101860.81;;;-0.15;84.87
68634;BME280;55625;47.072;22.192;2022-12-18T14:26:29;101863.44;;;-0.19;86.15
68634;BME280;55625;47.072;22.192;2022-12-18T14:29:10;101871.63;;;-0.22;85.88
68634;BME280;55625;47.072;22.192;2022-12-18T14:31:43;101870.66;;;-0.26;85.87
68634;BME280;55625;47.072;22.192;2022-12-18T14:34:16;101869.69;;;-0.30;85.64
68634;BME280;55625;47.072;22.192;2022-12-18T14:36:52;101881.78;;;-0.35;87.58
68634;BME280;55625;47.072;22.192;2022-12-18T14:39:19;101875.88;;;-0.42;87.87
68634;BME280;55625;47.072;22.192;2022-12-18T14:41:44;101880.97;;;-0.44;88.84
68634;BME280;55625;47.072;22.192;2022-12-18T14:44:12;101873.41;;;-0.52;88.86
68634;BME280;55625;47.072;22.192;2022-12-18T14:46:39;101881.63;;;-0.56;88.99
68634;BME280;55625;47.072;22.192;2022-12-18T14:49:31;101887.34;;;-0.61;90.71
68634;BME280;55625;47.072;22.192;2022-12-18T14:52:06;101895.84;;;-0.66;90.97